Friday, October 31, 2014
12:55 UTC
  |  Log In   |  Register Free
Airport Search:

Pedro Bay Airport
(4K0)

Pedro Bay Airport Diagram
No Airport Diagram Available

FAA data valid effective September 18, 2014 - November 13, 2014 (unless otherwise noted).

 
 
 
 
 
 
 
 
 
 
 
 
 
 

Current Aviation Weather for Pedro Bay Airport (4K0)

METAR data is unavailable for 4K0. The nearest METAR location is at PAIL (23.7 nm SW from 4K0).

The most recent METAR observation for PAIL was updated at: 1225
METAR Summary (Translated METAR)
PAIL
311153Z AUTO 02008KT 10SM CLR M10/M13 A2936 RMK SLP948 T11001133 11078 21106 58031 TSNO VIA AUTODIAL
(23.7 nm SW from 4K0)
PAIL
311153Z AUTO 02008KT 10SM CLR M10/M13 A2936 RMK SLP948 T11001133 11078 21106 58031 TSNO VIA AUTODIAL
(23.7 nm SW from 4K0)
TAF Summary (Translated TAF)
PAIL
311140Z 3112/0112 36008KT P6SM SKC FM311800 04012KT P6SM SCT050 BKN080 FM312200 06016G22KT P6SM VCSH BKN035 OVC060
PAIL
311140Z 3112/0112 36008KT P6SM SKC FM311800 04012KT P6SM SCT050 BKN080 FM312200 06016G22KT P6SM VCSH BKN035 OVC060
  Airport Weather Conditions for 4K0

Current weather conditions are
not available for 4K0


The nearest NOAA weather station
is at ILI, (23.7 nm SW from 4K0)
  
 Current Weather at ILI
14° F
Fair
North winds at 6.9 mph
ILI NOAA Radar

Pressure: 29.40 in
Humidity: 77%
Wind: North at 6.9 MPH (6 KT)
Dew Point: 8.1°F
Visibility: 10.00 mi


Airport Weather Forecast for 4K0

Translated METAR and TAF for PAIL
Translated METAR for PAIL (1250 UTC 31 October 2014)
found at http://aviationweather.gov/adds/metars/
 
METAR text: PAIL 311153Z AUTO 02008KT 10SM CLR M10/M13 A2936 RMK SLP948 T11001133 11078 21106 58031 TSNO VIA AUTODIAL
Conditions at: PAIL (ILIAMNA , AK, US) observed 1153 UTC 31 October 2014
Temperature: -10.0°C (14°F)
Dewpoint: -13.3°C (8°F) [RH = 77%]
Pressure (altimeter): 29.36 inches Hg (994.3 mb)
[Sea-level pressure: 994.8 mb]
Winds: from the NNE (20 degrees) at 9 MPH (8 knots; 4.2 m/s)
Visibility: 10 or more miles (16+ km)
Ceiling: at least 12,000 feet AGL
Clouds: sky clear below 12,000 feet AGL
Weather: no significant weather observed at this time
Translated TAF for PAIL
Forecast for: PAIL (ILIAMNA , AK, US)
TAF Text: PAIL 311140Z 3112/0112 36008KT P6SM SKC
Forecast period: 1200 to 1800 UTC 31 October 2014
Forecast type: FROM: standard forecast or significant change
Winds: from the N (360 degrees) at 9 MPH (8 knots; 4.2 m/s)
Visibility: 6 or more miles (10+ km)
Clouds: clear skies
Weather: no significant weather forecast for this period
TAF Text: FM311800 04012KT P6SM SCT050 BKN080
Forecast period: 1800 to 2200 UTC 31 October 2014
Forecast type: FROM: standard forecast or significant change
Winds: from the NE (40 degrees) at 14 MPH (12 knots; 6.2 m/s)
Visibility: 6 or more miles (10+ km)
Ceiling: 8000 feet AGL
Clouds: scattered clouds at 5000 feet AGL
broken clouds at 8000 feet AGL
Weather: no significant weather forecast for this period
TAF Text: FM312200 06016G22KT P6SM VCSH BKN035 OVC060
Forecast period: 2200 UTC 31 October 2014 to 1200 UTC 01 November 2014
Forecast type: FROM: standard forecast or significant change
Winds: from the ENE (60 degrees) at 18 MPH (16 knots; 8.3 m/s)
gusting to 25 MPH (22 knots; 11.4 m/s)
Visibility: 6 or more miles (10+ km)
Ceiling: 3500 feet AGL
Clouds: broken clouds at 3500 feet AGL
overcast cloud deck at 6000 feet AGL
Weather: VCSH  (showers in vicinity)

Find All Airport Services Find A Hotel Find A Rental Car Find A Golf Course Find A Restaurant $100 Hamburger



FBO's on the Field
FBO Company Facility Photos Services Transportation Aviation Fuel Prices: Prices include tax
Catering Weather Repair Courtesy Rental Type 100LL JetA JetA+ MOGAS 8087
 
Add another FBO Facility Photos Catering Weather Repair Courtesy Rental Type 100LL JetA JetA+ MOGAS 8087
Services Transportation Aviation Fuel Prices: Prices include tax
There are no FBO's currently reporting fuel at 4K0. List your FBO now


model-print
model-print
model-print
model-print